Airfield :
LOGIN :

Register | Disclaimer

   EN    FR    IT 

 










Legend :    VFR   Marginal VFR   IFR   Intensive IFR   Very Intensive IFR
Visi :
Ceiling :
>= 8 km
>= 3000ft
5 to 8 km
1000 to 3000 ft
1500m to 5 km
500 to 1000 ft
800 to 1500m
200 to 500 ft
< 800m
< 200 ft
Symbols :   Thunderstorms  Fog  Heavy snow  Heavy precipitations  Wind > 20 kt
SIGMETs :     Misc.  Thunderstorms  Icing  Turbulence  Mountain Waves  Volcanic Ashes






- Airport Elevation : 856 ft
- IATA code : VGO


LEVX - Vigo Peinador

CURRENT METAR :
  • 201630Z 17004KT 110V240 9999 FEW008 BKN028 08/08 Q1004 TEMPO 3000 SHRA BKN003 BKN020CB

EXPIRED METARs :
  • 201600Z 17004KT 100V230 9999 FEW008 BKN022 09/08 Q1004 TEMPO 3000 SHRA BKN003 BKN020CB
  • 201530Z 18007KT 130V210 5000 -RA BR BKN010 BKN019 08/08 Q1004 TEMPO 3000 SHRA BKN003 BKN020CB
  • 201500Z 17006KT 100V230 9999 SCT006 SCT013 BKN025 08/08 Q1004 TEMPO 3000 SHRA BKN003 BKN020CB
  • 201430Z 18006KT 100V240 9999 SCT008 SCT012 BKN035 08/08 Q1004 TEMPO 3000 SHRA BKN003 BKN020CB
  • 201413Z 16006KT 080V230 9999 SCT002 BKN006 08/08 Q1005 TEMPO 0300 SHRA BKN020CB
  • 201400Z 17007KT 080V220 3000 0900SE R19/P2000 R01/1100U BCFG OVC002 08/08 Q1005 TEMPO 0300 SHRA BKN020CB

TAF AMD TAF LEVX
Valid from the 20 at 13:00 until the 21 at 12:00 UTC


201347Z 2013/2112 20009KT 6000 SCT003 BKN016 TX09/2015Z TN06/2107Z
TEMPO 2013/2103 3000 RA SHRA BKN010 SCT020TCU
TEMPO 2013/2020 0500 RA FG BKN003
PROB40
TEMPO 2013/2020 26012G22KT 1500 SHRA TS BKN005 BKN020CB
PROB30
TEMPO 2013/2020 0150 +SHRAGS FG BKN001 BKN020CB
TEMPO 2100/2110 3000 -RA BR BKN010
TEMPO 2100/2109 0800 BCFG
PROB40
TEMPO 2100/2108 0350 FG VV001
PROB30
TEMPO 2110/2112 SHRA SCT030TCU



MET'MAP, your aeronautical weather chart ! - Copyright ORBIFLY December 2007 - Disclaimer

ORBIFLY MET'MAP TEAM :

Programming & Development : Alexandra Zaïnal
Concept & Development : Baudouin d'Aumeries
Co-Development & Prog : Marc-Olivier Méhu
Technical & hardware support : Manuel Goepfert

Contact : metmap@orbifly.com




SOURCES & CREDITS :

   NOAA